createdAt,value
2023-01-07T00:01:37.945Z,59.33
2023-01-07T00:04:08.486Z,61.68
2023-01-07T00:06:39.144Z,56.98
2023-01-07T00:09:11.919Z,50.75
2023-01-07T00:11:41.052Z,48.83
2023-01-07T00:14:11.557Z,50.10
2023-01-07T00:16:39.500Z,49.33
2023-01-07T00:19:10.192Z,49.95
2023-01-07T00:21:37.943Z,55.08
2023-01-07T00:24:07.082Z,52.50
2023-01-07T00:26:37.001Z,53.35
2023-01-07T00:29:06.819Z,49.85
2023-01-07T00:31:38.924Z,51.13
2023-01-07T00:34:08.510Z,51.77
2023-01-07T00:36:43.724Z,53.17
2023-01-07T00:39:18.424Z,52.73
2023-01-07T00:42:05.821Z,54.18
2023-01-07T00:44:34.468Z,50.95
2023-01-07T00:47:02.391Z,55.30
2023-01-07T00:49:30.039Z,57.78
2023-01-07T00:51:57.823Z,62.50
2023-01-07T00:54:25.792Z,65.72
2023-01-07T00:56:53.268Z,65.20
2023-01-07T00:59:20.845Z,62.05
2023-01-07T01:01:48.716Z,59.03
2023-01-07T01:04:17.264Z,57.43
2023-01-07T01:06:45.004Z,52.48
2023-01-07T01:09:13.399Z,51.95
2023-01-07T01:11:41.770Z,46.70
2023-01-07T01:14:11.121Z,45.05
2023-01-07T01:16:39.494Z,50.50
2023-01-07T01:19:07.249Z,49.05
2023-01-07T01:21:35.071Z,41.80
2023-01-07T01:24:02.820Z,36.80
2023-01-07T01:26:30.877Z,36.45
2023-01-07T01:28:58.676Z,35.08
2023-01-07T01:31:26.823Z,37.90
2023-01-07T01:33:56.066Z,38.28
2023-01-07T01:36:24.259Z,38.25
2023-01-07T01:38:52.437Z,36.83
2023-01-07T01:41:21.550Z,36.80
2023-01-07T01:43:50.927Z,36.00
2023-01-07T01:46:39.259Z,33.18
2023-01-07T01:49:36.327Z,32.13
2023-01-07T01:52:10.228Z,29.63
2023-01-07T01:54:41.889Z,29.52
2023-01-07T01:57:09.980Z,27.98
2023-01-07T01:59:42.255Z,26.50
2023-01-07T02:02:12.510Z,29.30
2023-01-07T02:04:41.578Z,27.07
2023-01-07T02:07:16.335Z,25.95
2023-01-07T02:09:50.094Z,24.57
2023-01-07T02:12:29.377Z,24.15
2023-01-07T02:15:20.776Z,23.38
2023-01-07T02:18:16.216Z,22.77
2023-01-07T02:21:13.554Z,24.25
2023-01-07T02:23:49.968Z,23.55
2023-01-07T02:26:54.085Z,23.55
2023-01-07T02:29:42.126Z,21.27
2023-01-07T02:32:40.216Z,22.30
2023-01-07T02:35:36.244Z,23.02
2023-01-07T02:38:18.626Z,23.02
2023-01-07T02:41:10.277Z,21.90
2023-01-07T02:43:49.876Z,23.18
2023-01-07T02:46:49.232Z,22.87
2023-01-07T02:49:18.232Z,22.58
2023-01-07T02:51:47.713Z,24.65
2023-01-07T02:54:28.478Z,23.77
2023-01-07T02:57:04.658Z,24.55
2023-01-07T02:59:59.720Z,26.15
2023-01-07T03:03:02.482Z,27.45
2023-01-07T03:05:56.995Z,30.43
2023-01-07T03:08:45.116Z,30.90
2023-01-07T03:11:13.651Z,27.05
2023-01-07T03:13:52.535Z,24.60
2023-01-07T03:16:25.877Z,25.95
2023-01-07T03:19:11.425Z,26.42
2023-01-07T03:21:39.893Z,25.23
2023-01-07T03:24:08.620Z,25.43
2023-01-07T03:26:47.016Z,24.40
2023-01-07T03:29:17.338Z,24.43
2023-01-07T03:32:15.094Z,25.10
2023-01-07T03:34:45.039Z,25.52
2023-01-07T03:37:17.959Z,24.12
2023-01-07T03:39:47.368Z,24.60
2023-01-07T03:42:37.838Z,24.47
2023-01-07T03:45:13.314Z,22.77
2023-01-07T03:47:46.291Z,22.13
2023-01-07T03:50:16.573Z,20.20
2023-01-07T03:52:47.819Z,20.35
2023-01-07T03:55:16.505Z,19.50
2023-01-07T03:57:44.612Z,19.48
2023-01-07T04:00:14.231Z,18.45
2023-01-07T04:02:44.788Z,19.55
2023-01-07T04:05:14.385Z,19.50
2023-01-07T04:07:42.519Z,20.05
2023-01-07T04:10:10.258Z,20.08
2023-01-07T04:12:38.090Z,22.30
2023-01-07T04:15:07.512Z,19.90
2023-01-07T04:17:35.179Z,19.32
2023-01-07T04:20:03.447Z,19.40
2023-01-07T04:22:31.404Z,18.07
2023-01-07T04:24:58.952Z,17.80
2023-01-07T04:27:26.699Z,18.35
2023-01-07T04:29:55.418Z,18.52
2023-01-07T04:32:23.228Z,18.95
2023-01-07T04:34:51.091Z,19.27
2023-01-07T04:37:19.051Z,19.98
2023-01-07T04:39:46.972Z,17.95
2023-01-07T04:42:14.941Z,19.17
2023-01-07T04:44:42.939Z,18.37
2023-01-07T04:47:12.355Z,19.70
2023-01-07T04:49:40.037Z,19.20
2023-01-07T04:52:08.533Z,18.23
2023-01-07T04:54:37.141Z,19.42
2023-01-07T04:57:04.866Z,16.30
2023-01-07T04:59:33.289Z,17.05
2023-01-07T05:02:02.189Z,17.85
2023-01-07T05:04:30.412Z,17.52
2023-01-07T05:06:58.328Z,17.00
2023-01-07T05:09:26.465Z,16.30
2023-01-07T05:11:54.255Z,17.35
2023-01-07T05:14:22.630Z,16.60
2023-01-07T05:16:52.413Z,17.12
2023-01-07T05:19:21.297Z,18.12
2023-01-07T05:21:49.577Z,17.48
2023-01-07T05:24:17.674Z,19.10
2023-01-07T05:26:45.973Z,18.42
2023-01-07T05:29:14.138Z,18.65
2023-01-07T05:31:42.633Z,18.30
2023-01-07T05:34:10.643Z,18.77
2023-01-07T05:36:38.521Z,18.82
2023-01-07T05:39:06.451Z,18.27
2023-01-07T05:41:34.319Z,17.90
2023-01-07T05:44:02.243Z,17.30
2023-01-07T05:46:29.862Z,16.97
2023-01-07T05:48:57.366Z,16.00
2023-01-07T05:51:25.157Z,15.13
2023-01-07T05:53:52.907Z,15.35
2023-01-07T05:56:20.635Z,13.38
2023-01-07T05:58:48.480Z,14.13
2023-01-07T06:01:16.215Z,13.13
2023-01-07T06:03:44.331Z,14.73
2023-01-07T06:06:12.100Z,15.83
2023-01-07T06:08:40.232Z,17.98
2023-01-07T06:11:09.014Z,17.37
2023-01-07T06:13:36.870Z,17.23
2023-01-07T06:16:08.196Z,16.10
2023-01-07T06:18:36.761Z,16.30
2023-01-07T06:21:04.919Z,15.35
2023-01-07T06:23:32.526Z,15.88
2023-01-07T06:26:00.250Z,15.32
2023-01-07T06:28:27.926Z,17.52
2023-01-07T06:30:56.043Z,18.65
2023-01-07T06:33:24.027Z,18.32
2023-01-07T06:35:52.198Z,17.98
2023-01-07T06:38:19.809Z,17.98
2023-01-07T06:40:47.614Z,19.05
2023-01-07T06:43:15.600Z,19.82
2023-01-07T06:45:43.641Z,19.77
2023-01-07T06:48:11.508Z,20.27
2023-01-07T06:50:39.265Z,21.40
2023-01-07T06:53:07.127Z,19.52
2023-01-07T06:55:35.183Z,19.60
2023-01-07T06:58:03.244Z,20.55
2023-01-07T07:00:30.828Z,18.85
2023-01-07T07:02:58.677Z,20.82
2023-01-07T07:05:27.971Z,22.77
2023-01-07T07:07:56.057Z,20.68
2023-01-07T07:10:24.281Z,20.12
2023-01-07T07:12:52.211Z,19.80
2023-01-07T07:15:19.866Z,20.57
2023-01-07T07:17:47.968Z,20.15
2023-01-07T07:20:15.434Z,19.70
2023-01-07T07:22:47.511Z,18.17
2023-01-07T07:25:16.204Z,15.23
2023-01-07T07:27:47.330Z,17.20
2023-01-07T07:30:16.233Z,16.12
2023-01-07T07:32:44.019Z,15.68
2023-01-07T07:35:12.152Z,17.70
2023-01-07T07:37:40.825Z,15.65
2023-01-07T07:40:10.106Z,16.30
2023-01-07T07:43:11.491Z,16.12
2023-01-07T07:45:09.659Z,16.48
2023-01-07T07:47:37.401Z,17.05
2023-01-07T07:50:05.708Z,17.23
2023-01-07T07:52:33.364Z,18.95
2023-01-07T07:55:19.841Z,18.65
2023-01-07T07:57:30.617Z,17.85
2023-01-07T07:59:58.500Z,17.57
2023-01-07T08:02:26.799Z,16.95
2023-01-07T08:04:54.618Z,18.50
2023-01-07T08:07:32.054Z,19.42
2023-01-07T08:09:52.529Z,18.57
2023-01-07T08:12:20.121Z,16.05
2023-01-07T08:14:47.976Z,17.62
2023-01-07T08:17:16.114Z,17.42
2023-01-07T08:19:45.824Z,15.63
2023-01-07T08:22:13.823Z,15.88
2023-01-07T08:24:42.743Z,15.88
2023-01-07T08:27:11.046Z,16.30
2023-01-07T08:29:39.297Z,15.98
2023-01-07T08:32:07.304Z,16.37
2023-01-07T08:34:35.451Z,16.17
2023-01-07T08:37:03.229Z,16.37
2023-01-07T08:39:31.099Z,16.85
2023-01-07T08:41:58.883Z,14.03
2023-01-07T08:44:26.648Z,14.38
2023-01-07T08:46:54.601Z,14.03
2023-01-07T08:49:22.902Z,14.45
2023-01-07T08:51:50.570Z,14.25
2023-01-07T08:54:18.285Z,13.65
2023-01-07T08:56:46.523Z,15.40
2023-01-07T08:59:14.088Z,16.80
2023-01-07T09:01:42.250Z,16.35
2023-01-07T09:04:10.146Z,16.15
2023-01-07T09:06:37.944Z,16.02
2023-01-07T09:09:05.860Z,16.97
2023-01-07T09:11:33.716Z,14.53
2023-01-07T09:14:01.416Z,15.55
2023-01-07T09:16:29.263Z,16.62
2023-01-07T09:18:56.836Z,17.70
2023-01-07T09:21:24.783Z,18.77
2023-01-07T09:23:55.450Z,18.40
2023-01-07T09:26:23.405Z,18.92
2023-01-07T09:28:50.869Z,17.40
2023-01-07T09:31:22.004Z,15.50
2023-01-07T09:33:52.092Z,13.93
2023-01-07T09:36:20.201Z,13.15
2023-01-07T09:38:47.949Z,13.03
2023-01-07T09:41:45.413Z,12.40
2023-01-07T09:44:24.333Z,10.05
2023-01-07T09:46:55.241Z,8.60
2023-01-07T09:49:28.147Z,7.97
2023-01-07T09:52:01.387Z,6.72
2023-01-07T09:54:33.606Z,7.90
2023-01-07T09:57:02.143Z,8.55
2023-01-07T09:59:30.390Z,8.35
2023-01-07T10:02:29.357Z,8.95
2023-01-07T10:05:35.767Z,10.13
2023-01-07T10:08:32.082Z,10.80
2023-01-07T10:11:14.495Z,11.03
2023-01-07T10:13:59.887Z,10.60
2023-01-07T10:16:54.601Z,9.00
2023-01-07T10:19:54.092Z,9.58
2023-01-07T10:22:33.384Z,9.40
2023-01-07T10:25:20.768Z,9.08
2023-01-07T10:27:49.971Z,8.80
2023-01-07T10:30:22.862Z,8.88
2023-01-07T10:32:56.088Z,8.75
2023-01-07T10:35:27.289Z,9.23
2023-01-07T10:37:59.663Z,9.10
2023-01-07T10:40:49.447Z,8.23
2023-01-07T10:44:04.359Z,5.85
2023-01-07T10:47:09.755Z,7.50
2023-01-07T10:50:07.700Z,7.08
2023-01-07T10:53:01.405Z,7.58
2023-01-07T10:55:51.816Z,9.20
2023-01-07T10:58:19.602Z,12.37
2023-01-07T11:00:48.399Z,9.10
2023-01-07T11:03:24.374Z,8.18
2023-01-07T11:05:57.765Z,8.48
2023-01-07T11:08:29.849Z,8.70
2023-01-07T11:10:58.987Z,10.15
2023-01-07T11:13:32.846Z,9.18
2023-01-07T11:16:10.517Z,10.00
2023-01-07T11:18:52.899Z,9.50
2023-01-07T11:21:44.865Z,9.78
2023-01-07T11:24:34.662Z,8.98
2023-01-07T11:27:12.939Z,9.40
2023-01-07T11:29:57.654Z,8.98
2023-01-07T11:32:32.532Z,8.83
2023-01-07T11:35:04.910Z,8.10
2023-01-07T11:37:38.309Z,7.92
2023-01-07T11:40:17.486Z,9.25
2023-01-07T11:43:02.721Z,8.40
2023-01-07T11:45:36.830Z,8.75
2023-01-07T11:48:12.547Z,8.35
2023-01-07T11:51:00.376Z,9.20
2023-01-07T11:53:44.712Z,7.75
2023-01-07T11:56:18.025Z,8.10
2023-01-07T11:58:48.600Z,14.83
2023-01-07T12:01:24.183Z,9.05
2023-01-07T12:03:57.500Z,8.35
2023-01-07T12:06:32.876Z,7.90
2023-01-07T12:09:28.367Z,9.45
2023-01-07T12:12:00.974Z,7.50
2023-01-07T12:14:32.266Z,8.53
2023-01-07T12:17:20.138Z,8.15
2023-01-07T12:19:58.471Z,7.95
2023-01-07T12:22:58.891Z,8.33
2023-01-07T12:25:29.842Z,8.23
2023-01-07T12:28:17.022Z,8.88
2023-01-07T12:31:20.489Z,8.78
2023-01-07T12:34:17.230Z,9.93
2023-01-07T12:36:59.883Z,8.20
2023-01-07T12:39:41.650Z,9.78
2023-01-07T12:42:31.394Z,10.05
2023-01-07T12:45:05.598Z,11.22
2023-01-07T12:47:39.118Z,11.35
2023-01-07T12:50:24.672Z,11.85
2023-01-07T12:53:18.533Z,10.95
2023-01-07T12:56:13.421Z,10.82
2023-01-07T12:59:46.751Z,18.73
2023-01-07T13:02:29.535Z,15.83
2023-01-07T13:05:11.630Z,14.28
2023-01-07T13:08:04.413Z,12.00
2023-01-07T13:10:56.174Z,16.05
2023-01-07T13:13:46.475Z,30.40
2023-01-07T13:16:14.196Z,18.77
2023-01-07T13:18:42.621Z,11.53
2023-01-07T13:21:15.592Z,10.45
2023-01-07T13:24:54.696Z,9.40
2023-01-07T13:27:11.355Z,10.23
2023-01-07T13:30:23.176Z,11.20
2023-01-07T13:33:02.873Z,13.93
2023-01-07T13:35:48.068Z,12.78
2023-01-07T13:38:42.375Z,12.98
2023-01-07T13:41:39.721Z,13.00
2023-01-07T13:44:30.546Z,12.65
2023-01-07T13:47:01.312Z,12.20
2023-01-07T13:49:32.517Z,12.40
2023-01-07T13:52:17.210Z,11.95
2023-01-07T13:54:53.444Z,12.40
2023-01-07T13:57:32.502Z,13.18
2023-01-07T14:00:06.590Z,14.83
2023-01-07T14:02:57.302Z,15.30
2023-01-07T14:05:28.008Z,20.17
2023-01-07T14:08:04.114Z,17.80
2023-01-07T14:10:35.123Z,20.52
2023-01-07T14:13:18.682Z,26.00
2023-01-07T14:15:54.953Z,23.67
2023-01-07T14:18:39.906Z,28.35
2023-01-07T14:21:28.579Z,31.90
2023-01-07T14:24:07.697Z,34.55
2023-01-07T14:27:24.135Z,38.20
2023-01-07T14:29:56.505Z,29.98
2023-01-07T14:32:28.234Z,27.48
2023-01-07T14:35:07.911Z,28.87
2023-01-07T14:37:41.852Z,27.93
2023-01-07T14:40:33.402Z,26.10
2023-01-07T14:43:05.122Z,29.72
2023-01-07T14:45:47.476Z,35.48
2023-01-07T14:48:29.300Z,38.30
2023-01-07T14:51:42.009Z,36.53
2023-01-07T14:54:39.376Z,36.90
2023-01-07T14:57:50.910Z,40.10
2023-01-07T15:00:48.427Z,40.85
2023-01-07T15:03:50.682Z,40.88
2023-01-07T15:06:41.565Z,42.75
2023-01-07T15:09:35.335Z,42.93
2023-01-07T15:12:26.559Z,44.98
2023-01-07T15:15:42.241Z,56.10
2023-01-07T15:18:12.254Z,46.35
2023-01-07T15:21:32.984Z,71.55
2023-01-07T15:24:27.516Z,105.07
2023-01-07T15:27:12.262Z,44.42
2023-01-07T15:29:57.989Z,42.77
2023-01-07T15:33:04.139Z,52.00
2023-01-07T15:35:39.871Z,45.33
2023-01-07T15:38:34.502Z,46.98
2023-01-07T15:41:02.608Z,47.75
2023-01-07T15:43:34.602Z,44.38
2023-01-07T15:46:06.626Z,54.90
2023-01-07T15:48:34.568Z,52.70
2023-01-07T15:51:03.250Z,53.95
2023-01-07T15:53:31.587Z,51.40
2023-01-07T15:56:06.510Z,53.95
2023-01-07T15:58:40.518Z,58.92
2023-01-07T16:01:16.539Z,60.23
2023-01-07T16:03:46.567Z,57.05
2023-01-07T16:06:34.854Z,53.85
2023-01-07T16:09:13.846Z,54.33
2023-01-07T16:11:41.542Z,59.85
2023-01-07T16:14:22.596Z,58.38
2023-01-07T16:17:06.816Z,50.30
2023-01-07T16:19:34.299Z,53.38
2023-01-07T16:22:03.674Z,59.05
2023-01-07T16:24:31.435Z,63.60
2023-01-07T16:27:05.791Z,69.15
2023-01-07T16:29:38.175Z,68.02
2023-01-07T16:32:07.052Z,62.10
2023-01-07T16:34:40.383Z,79.07
2023-01-07T16:37:14.966Z,71.60
2023-01-07T16:39:47.097Z,79.27
2023-01-07T16:42:24.502Z,52.88
2023-01-07T16:44:59.082Z,45.83
2023-01-07T16:47:33.032Z,53.75
2023-01-07T16:50:21.494Z,56.73
2023-01-07T16:52:53.196Z,43.52
2023-01-07T16:55:51.682Z,34.98
2023-01-07T16:58:42.828Z,29.37
2023-01-07T17:01:18.883Z,26.07
2023-01-07T17:03:56.782Z,29.18
2023-01-07T17:06:33.173Z,33.70
2023-01-07T17:09:04.132Z,36.75
2023-01-07T17:11:39.900Z,40.23
2023-01-07T17:14:48.098Z,43.02
2023-01-07T17:17:32.746Z,47.05
2023-01-07T17:20:21.305Z,45.83
2023-01-07T17:22:49.932Z,41.75
2023-01-07T17:25:29.586Z,41.55
2023-01-07T17:28:00.666Z,38.45
2023-01-07T17:30:36.553Z,39.13
2023-01-07T17:33:04.917Z,39.38
2023-01-07T17:35:32.705Z,44.45
2023-01-07T17:38:00.339Z,45.15
2023-01-07T17:40:28.282Z,43.87
2023-01-07T17:43:14.211Z,41.98
2023-01-07T17:45:41.634Z,38.70
2023-01-07T17:48:14.975Z,40.75
2023-01-07T17:50:43.904Z,41.75
2023-01-07T17:53:23.136Z,41.25
2023-01-07T17:55:51.655Z,38.83
2023-01-07T17:58:30.475Z,40.05
2023-01-07T18:01:01.999Z,38.67
2023-01-07T18:03:29.743Z,36.48
2023-01-07T18:05:57.665Z,35.45
2023-01-07T18:08:25.561Z,35.25
2023-01-07T18:11:14.886Z,34.65
2023-01-07T18:13:42.973Z,34.90
2023-01-07T18:16:14.277Z,34.60
2023-01-07T18:18:42.211Z,37.95
2023-01-07T18:21:13.443Z,38.67
2023-01-07T18:23:41.382Z,40.50
2023-01-07T18:26:09.986Z,41.90
2023-01-07T18:28:37.446Z,45.08
2023-01-07T18:31:06.308Z,37.08
2023-01-07T18:33:35.278Z,48.55
2023-01-07T18:36:04.444Z,50.28
2023-01-07T18:38:32.074Z,41.70
2023-01-07T18:41:00.165Z,36.88
2023-01-07T18:43:28.378Z,35.08
2023-01-07T18:45:56.051Z,31.35
2023-01-07T18:48:24.852Z,28.85
2023-01-07T18:50:52.511Z,34.88
2023-01-07T18:53:21.893Z,37.67
2023-01-07T18:55:57.315Z,37.35
2023-01-07T18:58:26.359Z,37.75
2023-01-07T19:00:54.319Z,41.85
2023-01-07T19:03:21.837Z,50.55
2023-01-07T19:05:49.145Z,56.02
2023-01-07T19:08:16.856Z,53.40
2023-01-07T19:10:45.033Z,52.40
2023-01-07T19:13:33.956Z,46.65
2023-01-07T19:16:09.671Z,43.35
2023-01-07T19:18:38.361Z,44.63
2023-01-07T19:23:41.016Z,34.80
2023-01-07T19:26:10.790Z,35.48
2023-01-07T19:31:42.808Z,31.93
2023-01-07T19:34:12.419Z,32.78
2023-01-07T19:36:42.900Z,35.23
2023-01-07T19:39:14.999Z,36.20
2023-01-07T19:41:43.597Z,37.95
2023-01-07T19:44:12.066Z,39.03
2023-01-07T19:46:42.337Z,39.15
2023-01-07T19:49:11.591Z,38.83
2023-01-07T19:51:41.524Z,36.77
2023-01-07T19:54:16.331Z,36.08
2023-01-07T19:56:44.472Z,37.10
2023-01-07T19:59:12.208Z,37.30
2023-01-07T20:01:41.512Z,38.45
2023-01-07T20:04:09.449Z,37.23
2023-01-07T20:06:39.032Z,30.70
2023-01-07T20:09:12.207Z,30.95
2023-01-07T20:11:42.017Z,27.32
2023-01-07T20:14:13.701Z,25.50
2023-01-07T20:16:43.214Z,27.30
2023-01-07T20:19:12.188Z,28.75
2023-01-07T20:21:40.617Z,29.82
2023-01-07T20:24:10.836Z,31.93
2023-01-07T20:26:38.800Z,33.25
2023-01-07T20:29:06.911Z,34.67
2023-01-07T20:31:34.779Z,34.83
2023-01-07T20:34:02.729Z,35.80
2023-01-07T20:36:32.364Z,37.08
2023-01-07T20:39:02.128Z,39.33
2023-01-07T20:41:29.705Z,36.38
2023-01-07T20:44:00.733Z,34.65
2023-01-07T20:46:30.381Z,38.35
2023-01-07T20:48:59.000Z,35.58
2023-01-07T20:51:27.500Z,35.08
2023-01-07T20:53:55.373Z,33.67
2023-01-07T20:56:24.243Z,34.43
2023-01-07T20:58:52.253Z,36.65
2023-01-07T21:01:21.625Z,35.15
2023-01-07T21:03:50.220Z,36.90
2023-01-07T21:06:20.511Z,36.98
2023-01-07T21:08:49.017Z,38.10
2023-01-07T21:11:20.713Z,36.50
2023-01-07T21:13:50.339Z,37.40
2023-01-07T21:16:18.522Z,37.55
2023-01-07T21:18:47.061Z,36.38
2023-01-07T21:21:18.729Z,38.08
2023-01-07T21:23:48.147Z,38.70
2023-01-07T21:26:16.208Z,38.00
2023-01-07T21:28:44.557Z,38.55
2023-01-07T21:31:15.652Z,37.60
2023-01-07T21:33:44.600Z,39.40
2023-01-07T21:36:16.564Z,40.30
2023-01-07T21:38:46.234Z,39.05
2023-01-07T21:41:16.193Z,41.08
2023-01-07T21:43:46.419Z,40.98
2023-01-07T21:46:14.679Z,42.17
2023-01-07T21:48:46.882Z,43.90
2023-01-07T21:51:22.307Z,43.95
2023-01-07T21:53:55.293Z,44.03
2023-01-07T21:56:26.491Z,44.38
2023-01-07T21:58:54.155Z,45.67
2023-01-07T22:01:23.813Z,44.42
2023-01-07T22:03:54.316Z,44.18
2023-01-07T22:06:31.442Z,46.77
2023-01-07T22:09:06.243Z,43.87
2023-01-07T22:11:37.869Z,42.00
2023-01-07T22:14:12.230Z,43.92
2023-01-07T22:16:41.837Z,39.10
2023-01-07T22:19:12.059Z,37.42
2023-01-07T22:21:39.780Z,34.25
2023-01-07T22:24:08.123Z,34.85
2023-01-07T22:26:35.852Z,34.80
2023-01-07T22:29:07.800Z,32.60
2023-01-07T22:31:38.384Z,33.40
2023-01-07T22:34:07.781Z,34.83
2023-01-07T22:37:02.048Z,34.05
2023-01-07T22:39:37.601Z,32.63
2023-01-07T22:42:14.032Z,33.73
2023-01-07T22:44:47.072Z,31.75
2023-01-07T22:47:19.324Z,32.20
2023-01-07T22:49:49.215Z,33.28
2023-01-07T22:52:17.148Z,34.10
2023-01-07T22:54:45.001Z,30.85
2023-01-07T22:57:13.729Z,31.60
2023-01-07T22:59:41.876Z,31.20
2023-01-07T23:02:10.759Z,29.85
2023-01-07T23:04:38.510Z,30.60
2023-01-07T23:07:07.531Z,30.35
2023-01-07T23:09:35.306Z,30.77
2023-01-07T23:12:03.414Z,29.65
2023-01-07T23:14:32.187Z,30.68
2023-01-07T23:17:00.229Z,30.25
2023-01-07T23:19:32.316Z,30.00
2023-01-07T23:22:00.366Z,31.20
2023-01-07T23:24:29.183Z,30.20
2023-01-07T23:26:56.804Z,29.27
2023-01-07T23:29:24.684Z,28.27
2023-01-07T23:31:53.642Z,27.73
2023-01-07T23:34:21.553Z,25.65
2023-01-07T23:36:49.421Z,23.92
2023-01-07T23:39:17.007Z,25.43
2023-01-07T23:41:45.310Z,26.82
2023-01-07T23:44:13.388Z,25.77
2023-01-07T23:46:40.880Z,27.37
2023-01-07T23:49:08.593Z,26.82
2023-01-07T23:51:36.117Z,24.95
2023-01-07T23:54:03.860Z,26.10
2023-01-07T23:56:31.781Z,28.52
2023-01-07T23:59:01.583Z,29.55
